Аэропорт: Угольный. Анадырь

ICAO: UHMA

METAR:
2021-01-19 11:00:00
UHMA 191100Z 01005MPS CAVOK M35/M38 Q1009 R01/////// NOSIG RMK TDZ R01/01005G06MPS END R01/01003G05MPS QFE753/1004
METAR:
2021-01-19 07:38:00
TAF UHMA 190738Z 1909/2009 35003G08MPS 9999 SCT033 TEMPO 1909/2009 03008G13MPS 2400 -SN BR SCT003 BKN015